KBYG/BYG METAR and TAF weather

Enter ICAO airport designator
Station Type Date Time Source
KBYG METAR 2018/01/23 00:53 UTC NOAA

KBYG 230053Z AUTO 23005KT 10SM FEW065 M02/M09 A3005 RMK AO2 SLP212 T10221089


Station Type Date Time Source
KBYG Decoded METAR 2018/01/23 00:53 UTC NOAA

BUFFALO JOHNSON COUNTY AIRPORT , WY, United States (KBYG) 44-23N 106-43W 1497M
Jan 22, 2018 - 07:53 PM EST / 2018.01.23 0053 UTC
Wind: from the SW (230 degrees) at 6 MPH (5 KT):0
Visibility: 10 mile(s):0
Sky conditions: mostly clear
Temperature: 28.0 F (-2.2 C)
Windchill: 21 F (-6 C):1
Dew Point: 16.0 F (-8.9 C)
Relative Humidity: 60%
Pressure (altimeter): 30.05 in. Hg (1017 hPa)
ob: KBYG 230053Z AUTO 23005KT 10SM FEW065 M02/M09 A3005 RMK AO2 SLP212 T10221089
cycle: 1

Station Type Date Time Source
KBYG TAF UTC NOAA

Error!


Example: see airport list